Time;durP1;ratioP1;P1;durP2;ratioP2;P2;SDS_P1;SDS_P2;PMS_P1;PMS_P2;Temp;Humidity;BMP_temperature;BMP_pressure;BME280_temperature;BME280_humidity;BME280_pressure;Samples;Min_cycle;Max_cycle;Signal;HPM_P1;HPM_P2
2023/05/06 00:01:37;;;;;;;3.42;1.13;;;;;;;;;;5057726;28;20438;-74
2023/05/06 00:04:08;;;;;;;7.63;1.20;;;;;;;;;;5057984;28;20084;-75
2023/05/06 00:06:40;;;;;;;6.18;1.05;;;;;;;;;;5057700;28;20052;-74
2023/05/06 00:09:12;;;;;;;4.32;0.90;;;;;;;;;;5057507;28;20057;-75
2023/05/06 00:11:42;;;;;;;7.38;3.08;;;;;;;;;;5058120;28;20048;-74
2023/05/06 00:26:30;;;;;;;4.68;1.00;;;;;;;;;;5123497;27;20430;-73
2023/05/06 00:29:01;;;;;;;5.80;1.27;;;;;;;;;;5102335;28;20059;-73
2023/05/06 00:31:31;;;;;;;4.47;1.05;;;;;;;;;;5102712;28;20633;-74
2023/05/06 00:34:01;;;;;;;6.03;1.70;;;;;;;;;;5101824;28;20052;-73
2023/05/06 00:36:33;;;;;;;1.33;1.02;;;;;;;;;;5100765;28;20502;-74
2023/05/06 00:39:05;;;;;;;1.50;1.08;;;;;;;;;;5102588;28;20055;-72
2023/05/06 00:41:36;;;;;;;2.53;0.80;;;;;;;;;;5098024;28;20048;-72
2023/05/06 00:44:06;;;;;;;1.13;0.65;;;;;;;;;;5096846;28;20055;-72
2023/05/06 00:46:37;;;;;;;1.08;0.60;;;;;;;;;;5101920;28;20047;-72
2023/05/06 00:49:09;;;;;;;6.28;0.90;;;;;;;;;;5101858;28;20047;-73
2023/05/06 00:51:40;;;;;;;1.48;0.80;;;;;;;;;;5102267;28;20048;-74
2023/05/06 00:54:11;;;;;;;3.72;0.80;;;;;;;;;;5102408;28;20498;-72
2023/05/06 00:56:42;;;;;;;3.13;1.00;;;;;;;;;;5099094;28;20059;-73
2023/05/06 00:59:13;;;;;;;9.40;1.65;;;;;;;;;;5100307;28;20043;-73
2023/05/06 01:29:13;;;;;;;2.88;1.50;;;;;;;;;;5123204;27;20215;-74
2023/05/06 01:31:50;;;;;;;3.42;1.40;;;;;;;;;;5100839;28;20048;-73
2023/05/06 01:34:35;;;;;;;3.08;1.20;;;;;;;;;;5102945;28;20043;-73
2023/05/06 01:37:31;;;;;;;2.55;1.20;;;;;;;;;;5103417;28;20149;-73
2023/05/06 01:40:04;;;;;;;3.58;1.00;;;;;;;;;;5100939;28;20052;-73
2023/05/06 01:42:38;;;;;;;5.75;1.20;;;;;;;;;;5102770;28;20052;-74
2023/05/06 01:45:10;;;;;;;1.58;0.88;;;;;;;;;;5102369;28;20047;-73
2023/05/06 01:47:42;;;;;;;1.85;1.00;;;;;;;;;;5102657;28;20062;-74
2023/05/06 01:50:13;;;;;;;1.88;1.05;;;;;;;;;;5102363;28;20040;-73
2023/05/06 01:52:44;;;;;;;2.00;1.08;;;;;;;;;;5100453;28;20048;-73
2023/05/06 01:55:14;;;;;;;3.88;1.10;;;;;;;;;;5102484;28;20051;-73
2023/05/06 01:57:44;;;;;;;2.92;1.33;;;;;;;;;;5102330;28;20047;-73
2023/05/06 02:00:16;;;;;;;6.40;4.55;;;;;;;;;;5100912;28;20067;-73
2023/05/06 02:02:46;;;;;;;6.07;3.10;;;;;;;;;;5100531;28;20047;-74
2023/05/06 02:05:17;;;;;;;4.25;2.10;;;;;;;;;;5100943;28;20056;-73
2023/05/06 02:07:53;;;;;;;4.13;0.80;;;;;;;;;;5099788;28;20060;-72
2023/05/06 02:10:23;;;;;;;5.32;1.20;;;;;;;;;;5102597;28;20525;-75
2023/05/06 02:13:05;;;;;;;2.80;1.02;;;;;;;;;;5100105;28;20082;-73
2023/05/06 02:15:35;;;;;;;3.00;1.30;;;;;;;;;;5101768;28;20051;-74
2023/05/06 02:18:07;;;;;;;2.65;1.60;;;;;;;;;;5087598;28;20048;-74
2023/05/06 02:20:37;;;;;;;3.15;1.13;;;;;;;;;;5080049;28;20056;-74
2023/05/06 02:23:14;;;;;;;1.33;1.00;;;;;;;;;;5079331;28;20486;-73
2023/05/06 02:25:46;;;;;;;3.08;1.00;;;;;;;;;;5080189;28;20064;-74
2023/05/06 02:28:16;;;;;;;4.57;1.23;;;;;;;;;;5078990;28;20056;-73
2023/05/06 02:30:47;;;;;;;3.72;1.10;;;;;;;;;;5067450;28;20052;-75
2023/05/06 02:33:19;;;;;;;1.00;0.90;;;;;;;;;;5067948;28;20044;-74
2023/05/06 02:35:49;;;;;;;2.83;0.95;;;;;;;;;;5065748;28;20052;-74
2023/05/06 02:38:20;;;;;;;1.27;0.80;;;;;;;;;;5067966;28;20049;-73
2023/05/06 02:40:52;;;;;;;2.10;0.88;;;;;;;;;;5066908;28;20422;-73
2023/05/06 02:43:24;;;;;;;1.42;0.82;;;;;;;;;;5066094;28;20557;-73
2023/05/06 02:45:54;;;;;;;2.97;0.80;;;;;;;;;;5067082;28;20045;-74
2023/05/06 02:48:26;;;;;;;3.53;0.80;;;;;;;;;;5065567;28;20507;-74
2023/05/06 02:50:58;;;;;;;3.95;1.02;;;;;;;;;;5067693;28;20047;-74
2023/05/06 02:53:29;;;;;;;3.33;0.70;;;;;;;;;;5067174;28;20411;-74
2023/05/06 02:55:59;;;;;;;1.00;0.82;;;;;;;;;;5067698;28;20040;-73
2023/05/06 02:58:29;;;;;;;1.27;0.60;;;;;;;;;;5067541;28;20495;-72
2023/05/06 03:01:00;;;;;;;0.80;0.80;;;;;;;;;;5067885;28;20052;-72
2023/05/06 03:03:31;;;;;;;2.22;0.80;;;;;;;;;;5065828;28;20063;-72
2023/05/06 03:06:02;;;;;;;2.05;0.80;;;;;;;;;;5065218;28;20056;-74
2023/05/06 03:08:33;;;;;;;1.27;0.80;;;;;;;;;;5066796;28;20051;-72
2023/05/06 03:11:07;;;;;;;3.83;0.80;;;;;;;;;;5065418;28;20406;-73
2023/05/06 03:13:37;;;;;;;0.70;0.70;;;;;;;;;;5065232;28;20059;-73
2023/05/06 03:16:13;;;;;;;1.60;0.90;;;;;;;;;;5065443;28;20044;-73
2023/05/06 03:18:47;;;;;;;3.67;1.02;;;;;;;;;;5064698;28;20059;-72
2023/05/06 03:21:19;;;;;;;1.13;0.98;;;;;;;;;;5065084;28;20064;-73
2023/05/06 03:23:51;;;;;;;2.10;1.17;;;;;;;;;;5048518;28;20063;-73
2023/05/06 03:26:24;;;;;;;1.83;0.80;;;;;;;;;;5065060;28;20045;-73
2023/05/06 03:28:54;;;;;;;1.25;1.10;;;;;;;;;;5064993;28;20055;-73
2023/05/06 03:31:25;;;;;;;1.10;0.90;;;;;;;;;;5065150;28;20057;-72
2023/05/06 03:33:58;;;;;;;1.08;0.75;;;;;;;;;;5064991;28;20517;-73
2023/05/06 03:36:30;;;;;;;2.47;0.63;;;;;;;;;;5064982;28;20060;-73
2023/05/06 03:39:00;;;;;;;2.70;0.77;;;;;;;;;;5064832;28;20064;-74
2023/05/06 03:41:34;;;;;;;3.60;1.70;;;;;;;;;;5063648;28;20052;-73
2023/05/06 03:44:04;;;;;;;2.13;1.83;;;;;;;;;;5066654;28;20049;-74
2023/05/06 03:46:34;;;;;;;4.13;1.00;;;;;;;;;;5066146;28;20063;-73
2023/05/06 03:49:05;;;;;;;2.70;0.50;;;;;;;;;;5064571;28;20407;-75
2023/05/06 03:51:37;;;;;;;1.88;0.90;;;;;;;;;;5064264;28;20052;-73
2023/05/06 03:54:07;;;;;;;1.42;0.90;;;;;;;;;;5064189;28;20053;-73
2023/05/06 03:56:39;;;;;;;0.88;0.70;;;;;;;;;;5065444;28;20068;-73
2023/05/06 03:59:10;;;;;;;0.60;0.60;;;;;;;;;;5064461;28;20052;-74
2023/05/06 04:01:42;;;;;;;0.70;0.70;;;;;;;;;;5063721;28;20052;-73
2023/05/06 04:04:14;;;;;;;1.48;0.47;;;;;;;;;;5064024;28;20438;-74
2023/05/06 04:06:44;;;;;;;4.60;0.90;;;;;;;;;;5063692;28;20059;-74
2023/05/06 04:09:14;;;;;;;3.50;0.95;;;;;;;;;;5064012;28;20083;-73
2023/05/06 04:11:44;;;;;;;5.75;0.70;;;;;;;;;;5064104;28;20056;-73
2023/05/06 04:14:17;;;;;;;3.63;0.80;;;;;;;;;;5063947;28;20060;-74
2023/05/06 04:16:50;;;;;;;3.25;0.85;;;;;;;;;;5063806;28;20048;-73
2023/05/06 04:19:21;;;;;;;0.63;0.60;;;;;;;;;;5063939;28;20052;-74
2023/05/06 04:21:51;;;;;;;2.13;0.63;;;;;;;;;;5063418;28;20071;-74
2023/05/06 04:24:22;;;;;;;1.27;0.70;;;;;;;;;;5065983;28;20045;-74
2023/05/06 04:26:53;;;;;;;0.55;0.55;;;;;;;;;;5063173;28;20534;-74
2023/05/06 04:29:25;;;;;;;2.05;0.60;;;;;;;;;;5064086;28;20537;-74
2023/05/06 04:31:59;;;;;;;4.57;0.70;;;;;;;;;;5063619;28;20052;-75
2023/05/06 04:34:35;;;;;;;0.60;0.60;;;;;;;;;;5063689;28;20056;-73
2023/05/06 04:37:09;;;;;;;0.57;0.57;;;;;;;;;;5062615;28;20053;-74
2023/05/06 04:39:47;;;;;;;2.47;0.50;;;;;;;;;;5063674;28;20055;-74
2023/05/06 04:42:17;;;;;;;1.23;0.60;;;;;;;;;;5065448;28;20049;-72
2023/05/06 04:44:57;;;;;;;0.77;0.70;;;;;;;;;;5065153;28;20052;-73
2023/05/06 04:47:32;;;;;;;3.00;0.50;;;;;;;;;;5063356;28;20725;-74
2023/05/06 04:50:04;;;;;;;4.30;0.93;;;;;;;;;;5063207;28;20555;-74
2023/05/06 04:52:35;;;;;;;0.60;0.60;;;;;;;;;;5063177;28;20052;-74
2023/05/06 04:55:07;;;;;;;0.63;0.63;;;;;;;;;;5062989;28;20060;-74
2023/05/06 04:57:40;;;;;;;1.27;0.70;;;;;;;;;;5047215;28;20606;-73
2023/05/06 05:00:13;;;;;;;7.35;0.60;;;;;;;;;;5063262;28;20052;-74
2023/05/06 05:02:43;;;;;;;6.60;0.60;;;;;;;;;;5063189;28;20510;-74
2023/05/06 05:05:16;;;;;;;4.50;0.73;;;;;;;;;;5063449;28;20075;-74
2023/05/06 05:07:51;;;;;;;;;;;;;;;;;;5063880;28;20457;-74
2023/05/06 05:10:31;;;;;;;4.90;0.60;;;;;;;;;;5063328;28;19925;-74
2023/05/06 05:13:01;;;;;;;1.48;0.55;;;;;;;;;;5063569;28;20052;-74
2023/05/06 05:15:31;;;;;;;2.65;0.60;;;;;;;;;;5062835;28;20650;-73
2023/05/06 05:18:02;;;;;;;0.82;0.50;;;;;;;;;;5063064;28;21288;-74
2023/05/06 05:20:33;;;;;;;1.58;0.60;;;;;;;;;;5063636;28;20052;-74
2023/05/06 05:23:05;;;;;;;2.10;0.60;;;;;;;;;;5063813;28;20052;-75
2023/05/06 05:25:38;;;;;;;1.30;0.70;;;;;;;;;;5062535;28;20048;-74
2023/05/06 05:28:09;;;;;;;3.83;0.60;;;;;;;;;;5062960;28;20064;-74
2023/05/06 05:30:39;;;;;;;6.68;0.65;;;;;;;;;;5062685;28;20053;-73
2023/05/06 05:33:10;;;;;;;2.42;0.68;;;;;;;;;;5064801;28;20044;-74
2023/05/06 05:35:40;;;;;;;4.72;1.10;;;;;;;;;;5062850;28;20051;-73
2023/05/06 05:38:13;;;;;;;2.50;0.82;;;;;;;;;;5063492;28;20048;-74
2023/05/06 05:40:44;;;;;;;2.70;0.80;;;;;;;;;;5063116;28;20064;-73
2023/05/06 05:43:14;;;;;;;6.05;0.80;;;;;;;;;;5062415;28;20071;-73
2023/05/06 05:45:45;;;;;;;2.78;0.80;;;;;;;;;;5064621;28;20040;-73
2023/05/06 05:48:15;;;;;;;3.15;0.70;;;;;;;;;;5064844;28;20048;-73
2023/05/06 05:50:46;;;;;;;2.35;0.70;;;;;;;;;;5061969;28;20059;-73
2023/05/06 05:53:18;;;;;;;1.45;0.70;;;;;;;;;;5062991;28;20090;-74
2023/05/06 05:55:48;;;;;;;2.78;0.60;;;;;;;;;;5063940;28;20067;-74
2023/05/06 05:58:19;;;;;;;3.58;0.60;;;;;;;;;;5063101;28;20055;-75
2023/05/06 06:00:49;;;;;;;1.70;0.68;;;;;;;;;;5062213;28;20052;-73
2023/05/06 06:03:20;;;;;;;1.67;0.70;;;;;;;;;;5062336;28;20056;-73
2023/05/06 06:05:53;;;;;;;3.35;0.70;;;;;;;;;;5068387;28;20051;-73
2023/05/06 06:08:25;;;;;;;0.70;0.70;;;;;;;;;;5066005;28;20059;-74
2023/05/06 06:10:58;;;;;;;5.60;0.70;;;;;;;;;;5066684;28;20056;-73
2023/05/06 06:13:41;;;;;;;0.50;0.50;;;;;;;;;;5068786;28;20323;-74
2023/05/06 06:16:13;;;;;;;5.72;2.75;;;;;;;;;;5066390;28;20544;-74
2023/05/06 06:18:43;;;;;;;1.70;0.70;;;;;;;;;;5067859;28;20055;-74
2023/05/06 06:21:13;;;;;;;4.90;1.00;;;;;;;;;;5067836;28;20049;-74
2023/05/06 06:23:43;;;;;;;2.45;0.70;;;;;;;;;;5065999;28;20537;-74
2023/05/06 06:26:14;;;;;;;0.70;0.70;;;;;;;;;;5067269;28;20057;-74
2023/05/06 06:28:45;;;;;;;2.28;0.60;;;;;;;;;;5067839;28;20506;-73
2023/05/06 06:31:15;;;;;;;2.83;0.60;;;;;;;;;;5068668;28;20040;-74
2023/05/06 06:33:45;;;;;;;1.70;0.77;;;;;;;;;;5066070;28;20045;-73
2023/05/06 06:36:15;;;;;;;3.63;0.70;;;;;;;;;;5067370;28;20048;-73
2023/05/06 06:38:46;;;;;;;4.97;0.88;;;;;;;;;;5065812;28;20602;-73
2023/05/06 06:41:17;;;;;;;3.45;0.98;;;;;;;;;;5067544;28;20407;-73
2023/05/06 06:43:48;;;;;;;2.17;1.00;;;;;;;;;;5067650;28;20047;-74
2023/05/06 06:46:19;;;;;;;4.10;0.82;;;;;;;;;;5066544;28;20056;-74
2023/05/06 06:48:50;;;;;;;3.95;1.60;;;;;;;;;;5066027;28;20049;-73
2023/05/06 06:51:21;;;;;;;1.85;1.65;;;;;;;;;;5065541;28;20044;-74
2023/05/06 06:53:52;;;;;;;4.80;1.55;;;;;;;;;;5065552;28;20045;-73
2023/05/06 06:56:22;;;;;;;1.92;1.52;;;;;;;;;;5066977;28;20041;-73
2023/05/06 06:58:52;;;;;;;1.92;1.63;;;;;;;;;;5067699;28;20059;-74
2023/05/06 07:01:23;;;;;;;5.47;2.00;;;;;;;;;;5067405;28;20055;-73
2023/05/06 07:03:53;;;;;;;2.00;1.80;;;;;;;;;;5067713;28;20056;-74
2023/05/06 07:06:23;;;;;;;4.13;2.00;;;;;;;;;;5067222;28;20443;-74
2023/05/06 07:08:53;;;;;;;1.30;1.10;;;;;;;;;;5066812;28;20387;-74
2023/05/06 07:11:26;;;;;;;2.35;1.80;;;;;;;;;;5067014;28;20529;-73
2023/05/06 07:13:56;;;;;;;5.05;1.20;;;;;;;;;;5067114;28;20819;-73
2023/05/06 07:16:26;;;;;;;1.85;1.15;;;;;;;;;;5066912;28;20056;-75
2023/05/06 07:18:56;;;;;;;3.47;0.70;;;;;;;;;;5065989;28;20999;-74
2023/05/06 07:21:26;;;;;;;4.35;0.80;;;;;;;;;;5067293;28;20487;-74
2023/05/06 07:23:58;;;;;;;4.50;0.93;;;;;;;;;;5067190;28;20408;-75
2023/05/06 07:26:28;;;;;;;1.48;0.90;;;;;;;;;;5065634;28;20419;-74
2023/05/06 07:28:58;;;;;;;3.70;1.48;;;;;;;;;;5066656;28;20079;-74
2023/05/06 07:31:28;;;;;;;5.50;2.03;;;;;;;;;;5066761;28;20048;-74
2023/05/06 07:33:59;;;;;;;4.47;1.50;;;;;;;;;;5065597;28;20049;-74
2023/05/06 07:36:37;;;;;;;4.63;1.83;;;;;;;;;;5067023;28;20044;-74
2023/05/06 07:39:08;;;;;;;6.55;2.03;;;;;;;;;;5066673;28;20052;-74
2023/05/06 07:41:38;;;;;;;1.60;0.95;;;;;;;;;;5066521;28;20671;-74
2023/05/06 07:44:09;;;;;;;3.70;1.30;;;;;;;;;;5066059;28;20044;-75
2023/05/06 07:46:39;;;;;;;2.10;1.00;;;;;;;;;;5066200;28;20055;-75
2023/05/06 07:49:10;;;;;;;1.60;1.00;;;;;;;;;;5066245;28;20488;-73
2023/05/06 07:51:42;;;;;;;3.25;1.30;;;;;;;;;;5066609;28;20514;-74
2023/05/06 07:54:12;;;;;;;2.45;1.10;;;;;;;;;;5066308;28;20059;-75
2023/05/06 07:56:42;;;;;;;2.10;1.02;;;;;;;;;;5065759;28;20052;-74
2023/05/06 07:59:14;;;;;;;1.10;1.00;;;;;;;;;;5065878;28;20040;-75
2023/05/06 08:01:44;;;;;;;2.97;1.20;;;;;;;;;;5065761;28;20111;-76
2023/05/06 08:04:14;;;;;;;1.30;1.08;;;;;;;;;;5066144;28;20048;-74
2023/05/06 08:06:44;;;;;;;5.32;1.05;;;;;;;;;;5065786;28;20059;-75
2023/05/06 08:09:19;;;;;;;1.13;1.00;;;;;;;;;;5066244;28;20059;-75
2023/05/06 08:11:52;;;;;;;2.20;1.15;;;;;;;;;;5065893;28;20052;-74
2023/05/06 08:14:24;;;;;;;3.00;1.17;;;;;;;;;;5065736;28;20043;-75
2023/05/06 08:16:55;;;;;;;2.78;1.08;;;;;;;;;;5065678;28;20049;-75
2023/05/06 08:19:25;;;;;;;4.38;1.02;;;;;;;;;;5065384;28;20046;-75
2023/05/06 08:21:56;;;;;;;2.90;0.88;;;;;;;;;;5065606;28;20056;-75
2023/05/06 08:24:26;;;;;;;1.35;1.13;;;;;;;;;;5065583;28;20048;-73
2023/05/06 08:26:56;;;;;;;3.40;1.05;;;;;;;;;;5063568;28;20055;-75
2023/05/06 08:29:27;;;;;;;4.68;0.90;;;;;;;;;;5065312;28;20061;-73
2023/05/06 08:31:58;;;;;;;3.05;1.40;;;;;;;;;;5065229;28;20048;-75
2023/05/06 08:34:28;;;;;;;2.72;1.25;;;;;;;;;;5065165;28;20048;-75
2023/05/06 08:36:58;;;;;;;1.58;1.33;;;;;;;;;;5065589;28;20127;-75
2023/05/06 08:39:30;;;;;;;1.85;0.90;;;;;;;;;;5065060;28;20049;-74
2023/05/06 08:42:04;;;;;;;0.98;0.93;;;;;;;;;;5065844;28;20048;-76
2023/05/06 08:44:34;;;;;;;1.48;1.02;;;;;;;;;;5064896;28;20064;-74
2023/05/06 08:47:04;;;;;;;1.75;0.95;;;;;;;;;;5065045;28;20049;-74
2023/05/06 08:49:35;;;;;;;3.30;1.20;;;;;;;;;;5065001;28;20056;-74
2023/05/06 08:52:07;;;;;;;1.83;1.20;;;;;;;;;;5065083;28;20483;-74
2023/05/06 08:54:37;;;;;;;2.85;1.00;;;;;;;;;;5065103;28;20044;-75
2023/05/06 08:57:11;;;;;;;1.90;0.98;;;;;;;;;;5064447;28;20505;-75
2023/05/06 08:59:42;;;;;;;2.35;0.95;;;;;;;;;;5065069;28;20525;-75
2023/05/06 09:02:13;;;;;;;1.20;1.10;;;;;;;;;;5064694;28;20047;-76
2023/05/06 09:04:46;;;;;;;2.80;1.00;;;;;;;;;;5064730;28;20115;-75
2023/05/06 09:07:16;;;;;;;3.10;1.20;;;;;;;;;;5064457;28;20398;-76
2023/05/06 09:09:45;;;;;;;3.20;1.13;;;;;;;;;;5064606;28;20399;-76
2023/05/06 09:12:17;;;;;;;2.78;1.42;;;;;;;;;;5065255;28;20799;-75
2023/05/06 09:14:50;;;;;;;2.55;1.55;;;;;;;;;;5064775;28;20053;-75
2023/05/06 09:17:27;;;;;;;5.05;1.80;;;;;;;;;;5065384;28;20036;-74
2023/05/06 09:19:59;;;;;;;1.75;1.35;;;;;;;;;;5065239;28;20049;-76
2023/05/06 09:22:31;;;;;;;1.70;1.50;;;;;;;;;;5062955;28;20049;-76
2023/05/06 09:25:02;;;;;;;2.25;1.70;;;;;;;;;;5063327;28;20502;-77
2023/05/06 09:27:35;;;;;;;2.33;1.80;;;;;;;;;;5063881;28;20075;-75
2023/05/06 09:30:10;;;;;;;1.90;1.42;;;;;;;;;;5062542;28;20044;-78
2023/05/06 09:32:41;;;;;;;2.15;1.60;;;;;;;;;;5044899;28;20048;-76
2023/05/06 09:35:11;;;;;;;2.70;1.42;;;;;;;;;;5042753;28;21181;-75
2023/05/06 09:37:43;;;;;;;1.73;1.40;;;;;;;;;;5044430;28;20053;-75
2023/05/06 09:40:14;;;;;;;1.95;1.70;;;;;;;;;;5047880;28;20037;-76
2023/05/06 09:42:44;;;;;;;2.33;1.60;;;;;;;;;;5048743;28;20049;-74
2023/05/06 09:45:16;;;;;;;7.00;1.50;;;;;;;;;;5047466;28;20056;-76
2023/05/06 09:47:48;;;;;;;1.40;1.30;;;;;;;;;;5048750;28;20045;-75
2023/05/06 09:50:21;;;;;;;1.83;0.80;;;;;;;;;;5048849;28;20969;-76
2023/05/06 09:52:54;;;;;;;5.60;1.10;;;;;;;;;;5048871;28;20052;-76
2023/05/06 09:55:27;;;;;;;0.80;0.80;;;;;;;;;;5047937;28;20053;-75
2023/05/06 09:57:59;;;;;;;2.95;0.90;;;;;;;;;;5048206;28;20048;-76
2023/05/06 10:00:31;;;;;;;2.25;1.13;;;;;;;;;;5047814;28;20049;-75
2023/05/06 10:03:03;;;;;;;1.33;1.00;;;;;;;;;;5048501;28;20045;-75
2023/05/06 10:05:35;;;;;;;2.90;1.40;;;;;;;;;;5051153;28;20041;-75
2023/05/06 10:08:08;;;;;;;3.90;1.20;;;;;;;;;;5048349;28;20037;-74
2023/05/06 10:10:42;;;;;;;2.83;0.90;;;;;;;;;;5048132;28;20408;-77
2023/05/06 10:13:15;;;;;;;0.95;0.85;;;;;;;;;;5047938;28;20052;-74
2023/05/06 10:15:47;;;;;;;1.27;0.90;;;;;;;;;;5048012;28;20049;-76
2023/05/06 10:18:21;;;;;;;1.60;1.20;;;;;;;;;;5046754;28;20056;-75
2023/05/06 10:20:54;;;;;;;1.38;1.00;;;;;;;;;;5046410;28;20049;-75
2023/05/06 10:23:28;;;;;;;1.85;1.17;;;;;;;;;;5048685;28;20060;-74
2023/05/06 10:26:09;;;;;;;2.45;1.10;;;;;;;;;;5047851;28;20036;-73
2023/05/06 10:28:42;;;;;;;3.42;1.30;;;;;;;;;;5047925;28;20057;-74
2023/05/06 10:31:13;;;;;;;1.20;1.10;;;;;;;;;;5047474;28;20052;-73
2023/05/06 10:33:51;;;;;;;2.30;1.10;;;;;;;;;;5048263;28;20048;-75
2023/05/06 10:36:27;;;;;;;2.20;2.00;;;;;;;;;;5047639;28;20483;-75
2023/05/06 10:39:00;;;;;;;1.90;1.10;;;;;;;;;;5047234;28;20056;-75
2023/05/06 10:41:33;;;;;;;6.85;3.67;;;;;;;;;;5047268;28;20053;-75
2023/05/06 10:44:04;;;;;;;4.22;2.50;;;;;;;;;;5048108;28;20045;-75
2023/05/06 10:46:59;;;;;;;2.38;1.67;;;;;;;;;;5047355;28;20048;-75
2023/05/06 10:49:29;;;;;;;1.40;1.30;;;;;;;;;;5047383;28;20041;-74
2023/05/06 10:52:11;;;;;;;1.50;1.33;;;;;;;;;;5047276;28;20053;-75
2023/05/06 10:54:49;;;;;;;1.75;1.30;;;;;;;;;;5047173;28;20049;-76
2023/05/06 10:57:25;;;;;;;2.05;1.60;;;;;;;;;;5047253;28;20049;-75
2023/05/06 10:59:56;;;;;;;7.72;1.73;;;;;;;;;;5047373;28;20045;-75
2023/05/06 11:02:30;;;;;;;2.03;1.70;;;;;;;;;;5047347;28;20055;-75
2023/05/06 11:05:03;;;;;;;2.00;1.23;;;;;;;;;;5047453;28;20056;-74
2023/05/06 11:07:33;;;;;;;4.72;1.20;;;;;;;;;;5046866;28;20060;-75
2023/05/06 11:10:05;;;;;;;2.10;1.10;;;;;;;;;;5045470;28;20040;-75
2023/05/06 11:12:54;;;;;;;1.10;1.00;;;;;;;;;;5045573;28;20059;-75
2023/05/06 11:15:50;;;;;;;3.33;0.90;;;;;;;;;;5045879;28;20530;-75
2023/05/06 11:18:25;;;;;;;1.67;1.40;;;;;;;;;;5047498;28;20057;-75
2023/05/06 11:21:01;;;;;;;1.30;1.10;;;;;;;;;;5045157;28;20045;-75
2023/05/06 11:23:54;;;;;;;2.85;1.42;;;;;;;;;;5046931;28;20058;-76
2023/05/06 11:26:25;;;;;;;1.20;1.10;;;;;;;;;;5046341;28;20487;-76
2023/05/06 11:29:00;;;;;;;1.52;1.00;;;;;;;;;;5046688;28;20401;-75
2023/05/06 11:31:36;;;;;;;;;;;;;;;;;;5029929;28;20503;-75
2023/05/06 11:34:09;;;;;;;5.00;2.50;;;;;;;;;;5047108;28;20380;-75
2023/05/06 11:36:52;;;;;;;2.10;1.60;;;;;;;;;;5046042;28;20049;-75
2023/05/06 11:39:22;;;;;;;4.40;2.00;;;;;;;;;;5046105;28;20510;-75
2023/05/06 11:41:52;;;;;;;3.75;1.40;;;;;;;;;;5046668;28;20053;-75
2023/05/06 11:44:26;;;;;;;1.38;1.15;;;;;;;;;;5045111;28;20094;-75
2023/05/06 11:47:04;;;;;;;1.27;1.17;;;;;;;;;;5045792;28;20041;-75
2023/05/06 11:49:42;;;;;;;2.53;1.60;;;;;;;;;;5046421;28;20041;-75
2023/05/06 11:52:12;;;;;;;3.83;1.50;;;;;;;;;;5046480;28;20049;-75
2023/05/06 11:54:43;;;;;;;4.75;1.55;;;;;;;;;;5045663;28;20075;-75
2023/05/06 11:57:15;;;;;;;1.50;1.17;;;;;;;;;;5045786;28;20068;-76
2023/05/06 11:59:45;;;;;;;2.03;1.15;;;;;;;;;;5046283;28;20358;-76
2023/05/06 12:02:17;;;;;;;2.15;1.25;;;;;;;;;;5044153;28;20064;-75
2023/05/06 12:04:50;;;;;;;2.22;1.48;;;;;;;;;;5046626;28;20056;-76
2023/05/06 12:07:21;;;;;;;1.77;1.30;;;;;;;;;;5045931;28;20061;-75
2023/05/06 12:09:52;;;;;;;1.20;1.08;;;;;;;;;;5046086;28;20052;-75
2023/05/06 12:12:23;;;;;;;4.43;2.28;;;;;;;;;;5045540;28;20063;-75
2023/05/06 12:14:55;;;;;;;3.38;1.30;;;;;;;;;;5045921;28;20404;-75
2023/05/06 12:17:26;;;;;;;1.77;1.40;;;;;;;;;;5045873;28;20045;-75
2023/05/06 12:20:01;;;;;;;2.80;1.70;;;;;;;;;;5045778;28;20052;-75
2023/05/06 12:22:31;;;;;;;4.22;1.50;;;;;;;;;;5045463;28;20063;-75
2023/05/06 12:25:16;;;;;;;4.43;2.13;;;;;;;;;;5045658;28;20049;-75
2023/05/06 12:27:47;;;;;;;4.75;1.80;;;;;;;;;;5045404;28;20057;-74
2023/05/06 12:30:30;;;;;;;3.05;1.85;;;;;;;;;;5045603;28;20049;-74
2023/05/06 12:33:01;;;;;;;3.17;1.60;;;;;;;;;;5044132;28;20414;-75
2023/05/06 12:35:33;;;;;;;4.22;1.65;;;;;;;;;;5045791;28;20526;-74
2023/05/06 12:38:16;;;;;;;1.92;1.67;;;;;;;;;;5044439;28;20060;-74
2023/05/06 12:40:53;;;;;;;3.22;1.92;;;;;;;;;;5045252;28;20048;-74
2023/05/06 12:43:30;;;;;;;4.88;1.80;;;;;;;;;;5045538;28;20048;-74
2023/05/06 12:46:07;;;;;;;2.00;1.38;;;;;;;;;;5043878;28;20415;-74
2023/05/06 12:48:38;;;;;;;1.88;1.50;;;;;;;;;;5044926;28;20056;-74
2023/05/06 12:51:21;;;;;;;2.60;1.95;;;;;;;;;;5044886;28;20057;-74
2023/05/06 12:53:52;;;;;;;3.05;2.42;;;;;;;;;;5045107;28;20052;-74
2023/05/06 12:56:22;;;;;;;2.22;1.80;;;;;;;;;;5045200;28;20052;-74
2023/05/06 12:59:00;;;;;;;3.60;1.65;;;;;;;;;;5044580;28;20053;-74
2023/05/06 13:01:31;;;;;;;3.20;1.85;;;;;;;;;;5045346;28;20511;-73
2023/05/06 13:04:01;;;;;;;1.70;1.15;;;;;;;;;;5044939;28;20052;-75
2023/05/06 13:06:32;;;;;;;1.63;1.08;;;;;;;;;;5044978;28;20488;-73
2023/05/06 13:09:04;;;;;;;2.33;1.70;;;;;;;;;;5044780;28;20040;-74
2023/05/06 13:11:35;;;;;;;3.20;1.23;;;;;;;;;;5044912;28;20140;-74
2023/05/06 13:14:05;;;;;;;1.15;0.80;;;;;;;;;;5044603;28;20492;-75
2023/05/06 13:16:35;;;;;;;0.60;0.60;;;;;;;;;;5043249;28;20525;-74
2023/05/06 13:19:10;;;;;;;0.88;0.65;;;;;;;;;;5045276;28;20048;-75
2023/05/06 13:22:00;;;;;;;2.10;1.02;;;;;;;;;;5044977;28;20407;-73
2023/05/06 13:24:31;;;;;;;2.25;1.27;;;;;;;;;;5044940;28;20064;-74
2023/05/06 13:27:01;;;;;;;3.92;0.73;;;;;;;;;;5043847;28;20056;-75
2023/05/06 13:29:31;;;;;;;3.85;2.15;;;;;;;;;;5044761;28;20516;-75
2023/05/06 13:32:02;;;;;;;1.60;0.90;;;;;;;;;;5044213;28;20427;-74
2023/05/06 13:34:36;;;;;;;0.85;0.80;;;;;;;;;;5044413;28;20056;-73
2023/05/06 13:37:06;;;;;;;2.72;1.00;;;;;;;;;;5045151;28;20052;-74
2023/05/06 13:39:37;;;;;;;9.77;6.10;;;;;;;;;;5044664;28;20053;-73
2023/05/06 13:42:08;;;;;;;6.93;4.38;;;;;;;;;;5044317;28;20431;-74
2023/05/06 13:44:39;;;;;;;3.53;2.28;;;;;;;;;;5044315;28;20048;-74
2023/05/06 13:47:08;;;;;;;2.17;1.30;;;;;;;;;;5044601;28;20060;-74
2023/05/06 13:49:39;;;;;;;3.72;1.30;;;;;;;;;;5044496;28;20060;-74
2023/05/06 13:52:10;;;;;;;1.35;1.10;;;;;;;;;;5045307;28;20057;-74
2023/05/06 13:54:39;;;;;;;1.67;1.10;;;;;;;;;;5045099;28;20049;-76
2023/05/06 13:57:10;;;;;;;2.08;0.90;;;;;;;;;;5044350;28;20056;-74
2023/05/06 13:59:40;;;;;;;1.13;0.95;;;;;;;;;;5044376;28;20053;-73
2023/05/06 14:02:11;;;;;;;1.58;1.15;;;;;;;;;;5044685;28;20388;-75
2023/05/06 14:04:41;;;;;;;1.73;1.10;;;;;;;;;;5043955;28;20045;-75
2023/05/06 14:07:11;;;;;;;2.95;1.30;;;;;;;;;;5044508;28;20053;-74
2023/05/06 14:09:42;;;;;;;1.40;0.95;;;;;;;;;;5044792;28;20416;-73
2023/05/06 14:12:13;;;;;;;2.38;0.95;;;;;;;;;;5043974;28;20045;-74
2023/05/06 14:14:44;;;;;;;1.90;0.80;;;;;;;;;;5044547;28;20071;-74
2023/05/06 14:17:13;;;;;;;1.83;0.90;;;;;;;;;;5043876;28;20518;-74
2023/05/06 14:19:44;;;;;;;1.92;1.00;;;;;;;;;;5044459;28;20824;-75
2023/05/06 14:22:15;;;;;;;2.28;1.25;;;;;;;;;;5044163;28;20049;-75
2023/05/06 14:24:45;;;;;;;1.48;0.90;;;;;;;;;;5045611;28;20052;-75
2023/05/06 14:27:16;;;;;;;1.33;0.70;;;;;;;;;;5047889;28;20065;-75
2023/05/06 14:29:46;;;;;;;0.80;0.80;;;;;;;;;;5047411;28;20060;-74
2023/05/06 14:32:16;;;;;;;1.17;1.00;;;;;;;;;;5047869;28;20052;-74
2023/05/06 14:34:47;;;;;;;1.70;0.70;;;;;;;;;;5047593;28;20898;-74
2023/05/06 14:37:18;;;;;;;0.93;0.93;;;;;;;;;;5047881;28;20048;-75
2023/05/06 14:39:48;;;;;;;1.55;0.90;;;;;;;;;;5047489;28;20075;-75
2023/05/06 14:42:18;;;;;;;2.22;2.03;;;;;;;;;;5048063;28;20560;-75
2023/05/06 14:44:49;;;;;;;1.02;0.93;;;;;;;;;;5048133;28;20049;-76
2023/05/06 14:47:20;;;;;;;2.90;1.90;;;;;;;;;;5047842;28;20049;-75
2023/05/06 14:49:50;;;;;;;1.60;0.85;;;;;;;;;;5047718;28;20059;-74
2023/05/06 14:52:20;;;;;;;0.90;0.80;;;;;;;;;;5047119;28;20423;-76
2023/05/06 14:54:50;;;;;;;3.05;2.10;;;;;;;;;;5046286;28;20056;-76
2023/05/06 14:57:21;;;;;;;2.47;0.90;;;;;;;;;;5047449;28;20059;-77
2023/05/06 14:59:51;;;;;;;0.90;0.90;;;;;;;;;;5047821;28;20045;-79
2023/05/06 15:02:21;;;;;;;1.45;0.80;;;;;;;;;;5047539;28;20691;-77
2023/05/06 15:04:51;;;;;;;1.27;1.02;;;;;;;;;;5047017;28;20515;-76
2023/05/06 15:07:21;;;;;;;1.00;1.00;;;;;;;;;;5046933;28;20045;-77
2023/05/06 15:09:51;;;;;;;1.33;1.15;;;;;;;;;;5046780;28;20059;-76
2023/05/06 15:12:21;;;;;;;0.88;0.80;;;;;;;;;;5046933;28;20698;-75
2023/05/06 15:14:51;;;;;;;0.70;0.70;;;;;;;;;;5046968;28;20057;-78
2023/05/06 15:17:21;;;;;;;1.30;1.00;;;;;;;;;;5046946;28;20051;-77
2023/05/06 15:19:51;;;;;;;3.75;1.00;;;;;;;;;;5047254;28;20052;-76
2023/05/06 15:22:22;;;;;;;0.73;0.70;;;;;;;;;;5047028;28;20474;-74
2023/05/06 15:24:53;;;;;;;2.85;0.80;;;;;;;;;;5047002;28;20051;-76
2023/05/06 15:27:23;;;;;;;1.98;1.40;;;;;;;;;;5046066;28;20061;-76
2023/05/06 15:29:53;;;;;;;0.80;0.80;;;;;;;;;;5046398;28;20586;-76
2023/05/06 15:32:23;;;;;;;1.85;0.80;;;;;;;;;;5046905;28;20413;-75
2023/05/06 15:34:53;;;;;;;1.13;0.95;;;;;;;;;;5045436;28;20040;-76
2023/05/06 15:37:25;;;;;;;1.10;1.00;;;;;;;;;;5046943;28;20072;-75
2023/05/06 15:39:56;;;;;;;1.42;1.10;;;;;;;;;;5046569;28;20064;-77
2023/05/06 15:42:28;;;;;;;4.72;3.55;;;;;;;;;;5044548;28;20056;-75
2023/05/06 15:44:59;;;;;;;2.70;1.10;;;;;;;;;;5046202;28;20051;-77
2023/05/06 15:47:30;;;;;;;0.68;0.68;;;;;;;;;;5046408;28;20067;-76
2023/05/06 15:50:00;;;;;;;1.13;0.90;;;;;;;;;;5045522;28;20389;-79
2023/05/06 15:52:38;;;;;;;3.20;0.90;;;;;;;;;;5046006;28;20528;-75